sensor_id;sensor_type;location;lat;lon;timestamp;P1;durP1;ratioP1;P2;durP2;ratioP2
14139;SDS011;7150;53.514;9.988;2023-06-22T00:02:16;3.93;;;2.57;;
14139;SDS011;7150;53.514;9.988;2023-06-22T00:04:42;4.70;;;3.17;;
14139;SDS011;7150;53.514;9.988;2023-06-22T00:07:08;3.73;;;2.90;;
14139;SDS011;7150;53.514;9.988;2023-06-22T00:09:33;5.23;;;3.10;;
14139;SDS011;7150;53.514;9.988;2023-06-22T00:11:59;3.93;;;2.87;;
14139;SDS011;7150;53.514;9.988;2023-06-22T00:14:25;4.57;;;3.30;;
14139;SDS011;7150;53.514;9.988;2023-06-22T00:16:50;3.67;;;2.97;;
14139;SDS011;7150;53.514;9.988;2023-06-22T00:19:19;3.73;;;2.67;;
14139;SDS011;7150;53.514;9.988;2023-06-22T00:21:46;4.87;;;3.07;;
14139;SDS011;7150;53.514;9.988;2023-06-22T00:24:12;4.63;;;2.77;;
14139;SDS011;7150;53.514;9.988;2023-06-22T00:26:38;3.80;;;2.60;;
14139;SDS011;7150;53.514;9.988;2023-06-22T00:29:04;4.87;;;2.43;;
14139;SDS011;7150;53.514;9.988;2023-06-22T00:31:29;3.43;;;2.70;;
14139;SDS011;7150;53.514;9.988;2023-06-22T00:33:55;4.70;;;2.67;;
14139;SDS011;7150;53.514;9.988;2023-06-22T00:36:20;3.37;;;2.47;;
14139;SDS011;7150;53.514;9.988;2023-06-22T00:38:46;4.57;;;3.03;;
14139;SDS011;7150;53.514;9.988;2023-06-22T00:41:11;4.73;;;2.70;;
14139;SDS011;7150;53.514;9.988;2023-06-22T00:43:37;4.93;;;3.00;;
14139;SDS011;7150;53.514;9.988;2023-06-22T00:46:02;3.43;;;2.60;;
14139;SDS011;7150;53.514;9.988;2023-06-22T00:48:28;2.57;;;2.37;;
14139;SDS011;7150;53.514;9.988;2023-06-22T00:50:53;4.10;;;3.17;;
14139;SDS011;7150;53.514;9.988;2023-06-22T00:53:20;4.70;;;3.37;;
14139;SDS011;7150;53.514;9.988;2023-06-22T00:55:46;2.87;;;2.57;;
14139;SDS011;7150;53.514;9.988;2023-06-22T00:58:12;4.47;;;3.10;;
14139;SDS011;7150;53.514;9.988;2023-06-22T01:00:38;3.90;;;2.93;;
14139;SDS011;7150;53.514;9.988;2023-06-22T01:03:05;4.73;;;2.93;;
14139;SDS011;7150;53.514;9.988;2023-06-22T01:05:34;4.67;;;3.30;;
14139;SDS011;7150;53.514;9.988;2023-06-22T01:10:55;5.43;;;2.83;;
14139;SDS011;7150;53.514;9.988;2023-06-22T01:13:32;3.87;;;3.00;;
14139;SDS011;7150;53.514;9.988;2023-06-22T01:16:23;3.97;;;3.30;;
14139;SDS011;7150;53.514;9.988;2023-06-22T01:19:00;3.20;;;2.57;;
14139;SDS011;7150;53.514;9.988;2023-06-22T01:21:48;2.90;;;2.60;;
14139;SDS011;7150;53.514;9.988;2023-06-22T01:24:23;4.53;;;2.97;;
14139;SDS011;7150;53.514;9.988;2023-06-22T01:27:00;3.73;;;2.80;;
14139;SDS011;7150;53.514;9.988;2023-06-22T01:29:39;3.50;;;2.80;;
14139;SDS011;7150;53.514;9.988;2023-06-22T01:32:07;4.20;;;2.70;;
14139;SDS011;7150;53.514;9.988;2023-06-22T01:34:33;4.83;;;2.90;;
14139;SDS011;7150;53.514;9.988;2023-06-22T01:37:01;3.20;;;2.80;;
14139;SDS011;7150;53.514;9.988;2023-06-22T01:39:27;3.50;;;3.00;;
14139;SDS011;7150;53.514;9.988;2023-06-22T01:41:55;3.67;;;3.17;;
14139;SDS011;7150;53.514;9.988;2023-06-22T01:44:21;4.07;;;2.83;;
14139;SDS011;7150;53.514;9.988;2023-06-22T01:46:49;4.23;;;2.83;;
14139;SDS011;7150;53.514;9.988;2023-06-22T01:49:15;4.53;;;3.27;;
14139;SDS011;7150;53.514;9.988;2023-06-22T01:51:41;4.40;;;3.10;;
14139;SDS011;7150;53.514;9.988;2023-06-22T01:54:07;4.83;;;3.13;;
14139;SDS011;7150;53.514;9.988;2023-06-22T01:56:34;4.00;;;3.30;;
14139;SDS011;7150;53.514;9.988;2023-06-22T01:59:04;4.77;;;3.20;;
14139;SDS011;7150;53.514;9.988;2023-06-22T02:05:04;3.90;;;2.67;;
14139;SDS011;7150;53.514;9.988;2023-06-22T02:07:32;4.00;;;2.77;;
14139;SDS011;7150;53.514;9.988;2023-06-22T02:10:09;3.43;;;2.73;;
14139;SDS011;7150;53.514;9.988;2023-06-22T02:12:38;3.47;;;2.70;;
14139;SDS011;7150;53.514;9.988;2023-06-22T02:15:05;4.57;;;2.93;;
14139;SDS011;7150;53.514;9.988;2023-06-22T02:17:32;3.93;;;3.13;;
14139;SDS011;7150;53.514;9.988;2023-06-22T02:19:58;3.67;;;2.73;;
14139;SDS011;7150;53.514;9.988;2023-06-22T02:22:24;3.53;;;2.90;;
14139;SDS011;7150;53.514;9.988;2023-06-22T02:24:49;4.47;;;3.23;;
14139;SDS011;7150;53.514;9.988;2023-06-22T02:27:15;3.67;;;3.07;;
14139;SDS011;7150;53.514;9.988;2023-06-22T02:29:40;4.50;;;2.97;;
14139;SDS011;7150;53.514;9.988;2023-06-22T02:32:06;3.77;;;2.60;;
14139;SDS011;7150;53.514;9.988;2023-06-22T02:34:32;3.43;;;2.70;;
14139;SDS011;7150;53.514;9.988;2023-06-22T02:36:58;4.50;;;2.80;;
14139;SDS011;7150;53.514;9.988;2023-06-22T02:39:26;3.73;;;2.73;;
14139;SDS011;7150;53.514;9.988;2023-06-22T02:41:52;4.33;;;2.70;;
14139;SDS011;7150;53.514;9.988;2023-06-22T02:44:18;4.30;;;3.00;;
14139;SDS011;7150;53.514;9.988;2023-06-22T02:46:45;5.03;;;3.20;;
14139;SDS011;7150;53.514;9.988;2023-06-22T02:49:11;4.87;;;3.20;;
14139;SDS011;7150;53.514;9.988;2023-06-22T02:51:41;3.93;;;3.03;;
14139;SDS011;7150;53.514;9.988;2023-06-22T02:54:10;4.13;;;2.93;;
14139;SDS011;7150;53.514;9.988;2023-06-22T02:56:35;4.60;;;2.80;;
14139;SDS011;7150;53.514;9.988;2023-06-22T02:59:01;3.50;;;2.93;;
14139;SDS011;7150;53.514;9.988;2023-06-22T03:01:28;4.10;;;2.90;;
14139;SDS011;7150;53.514;9.988;2023-06-22T03:03:55;3.17;;;2.80;;
14139;SDS011;7150;53.514;9.988;2023-06-22T03:06:21;4.20;;;3.27;;
14139;SDS011;7150;53.514;9.988;2023-06-22T03:08:54;4.30;;;3.07;;
14139;SDS011;7150;53.514;9.988;2023-06-22T03:11:23;3.73;;;2.80;;
14139;SDS011;7150;53.514;9.988;2023-06-22T03:13:49;3.63;;;2.93;;
14139;SDS011;7150;53.514;9.988;2023-06-22T03:16:17;4.53;;;2.70;;
14139;SDS011;7150;53.514;9.988;2023-06-22T03:18:42;3.90;;;3.50;;
14139;SDS011;7150;53.514;9.988;2023-06-22T03:21:08;6.40;;;3.87;;
14139;SDS011;7150;53.514;9.988;2023-06-22T03:23:33;4.83;;;3.90;;
14139;SDS011;7150;53.514;9.988;2023-06-22T03:25:59;5.20;;;3.63;;
14139;SDS011;7150;53.514;9.988;2023-06-22T03:28:25;4.93;;;3.57;;
14139;SDS011;7150;53.514;9.988;2023-06-22T03:30:50;4.63;;;3.70;;
14139;SDS011;7150;53.514;9.988;2023-06-22T03:33:16;5.87;;;3.97;;
14139;SDS011;7150;53.514;9.988;2023-06-22T03:35:41;5.30;;;3.03;;
14139;SDS011;7150;53.514;9.988;2023-06-22T03:38:07;5.90;;;3.83;;
14139;SDS011;7150;53.514;9.988;2023-06-22T03:40:32;5.83;;;3.50;;
14139;SDS011;7150;53.514;9.988;2023-06-22T03:42:58;5.27;;;3.67;;
14139;SDS011;7150;53.514;9.988;2023-06-22T03:45:23;5.00;;;3.90;;
14139;SDS011;7150;53.514;9.988;2023-06-22T03:47:49;4.57;;;3.13;;
14139;SDS011;7150;53.514;9.988;2023-06-22T03:50:14;4.37;;;3.50;;
14139;SDS011;7150;53.514;9.988;2023-06-22T03:52:40;3.70;;;2.73;;
14139;SDS011;7150;53.514;9.988;2023-06-22T03:55:06;5.53;;;3.60;;
14139;SDS011;7150;53.514;9.988;2023-06-22T03:57:32;4.40;;;3.50;;
14139;SDS011;7150;53.514;9.988;2023-06-22T03:59:57;4.70;;;3.13;;
14139;SDS011;7150;53.514;9.988;2023-06-22T04:02:23;5.43;;;3.47;;
14139;SDS011;7150;53.514;9.988;2023-06-22T04:04:49;5.17;;;3.77;;
14139;SDS011;7150;53.514;9.988;2023-06-22T04:07:14;4.53;;;3.37;;
14139;SDS011;7150;53.514;9.988;2023-06-22T04:09:40;7.23;;;3.50;;
14139;SDS011;7150;53.514;9.988;2023-06-22T04:12:05;4.23;;;3.27;;
14139;SDS011;7150;53.514;9.988;2023-06-22T04:14:31;4.23;;;3.57;;
14139;SDS011;7150;53.514;9.988;2023-06-22T04:16:57;4.00;;;3.37;;
14139;SDS011;7150;53.514;9.988;2023-06-22T04:19:23;5.13;;;3.20;;
14139;SDS011;7150;53.514;9.988;2023-06-22T04:21:48;4.13;;;3.33;;
14139;SDS011;7150;53.514;9.988;2023-06-22T04:24:14;4.97;;;3.70;;
14139;SDS011;7150;53.514;9.988;2023-06-22T04:26:40;5.27;;;3.27;;
14139;SDS011;7150;53.514;9.988;2023-06-22T04:29:07;4.10;;;3.20;;
14139;SDS011;7150;53.514;9.988;2023-06-22T04:31:34;5.03;;;3.47;;
14139;SDS011;7150;53.514;9.988;2023-06-22T04:34:03;3.77;;;3.10;;
14139;SDS011;7150;53.514;9.988;2023-06-22T04:36:38;5.03;;;3.13;;
14139;SDS011;7150;53.514;9.988;2023-06-22T04:39:06;3.33;;;2.90;;
14139;SDS011;7150;53.514;9.988;2023-06-22T04:41:35;4.37;;;3.23;;
14139;SDS011;7150;53.514;9.988;2023-06-22T04:44:08;3.13;;;2.73;;
14139;SDS011;7150;53.514;9.988;2023-06-22T04:46:49;3.40;;;3.00;;
14139;SDS011;7150;53.514;9.988;2023-06-22T04:49:19;3.67;;;2.90;;
14139;SDS011;7150;53.514;9.988;2023-06-22T04:51:45;4.57;;;3.20;;
14139;SDS011;7150;53.514;9.988;2023-06-22T04:54:10;3.80;;;2.80;;
14139;SDS011;7150;53.514;9.988;2023-06-22T04:56:36;4.90;;;2.87;;
14139;SDS011;7150;53.514;9.988;2023-06-22T04:59:02;4.20;;;2.93;;
14139;SDS011;7150;53.514;9.988;2023-06-22T05:01:28;4.80;;;3.17;;
14139;SDS011;7150;53.514;9.988;2023-06-22T05:03:55;5.13;;;3.10;;
14139;SDS011;7150;53.514;9.988;2023-06-22T05:06:22;4.77;;;3.13;;
14139;SDS011;7150;53.514;9.988;2023-06-22T05:08:52;4.83;;;3.20;;
14139;SDS011;7150;53.514;9.988;2023-06-22T05:11:22;3.30;;;2.47;;
14139;SDS011;7150;53.514;9.988;2023-06-22T05:13:49;5.23;;;2.97;;
14139;SDS011;7150;53.514;9.988;2023-06-22T05:16:14;5.43;;;3.10;;
14139;SDS011;7150;53.514;9.988;2023-06-22T05:18:39;5.10;;;3.20;;
14139;SDS011;7150;53.514;9.988;2023-06-22T05:21:06;3.47;;;2.97;;
14139;SDS011;7150;53.514;9.988;2023-06-22T05:23:32;4.40;;;3.30;;
14139;SDS011;7150;53.514;9.988;2023-06-22T05:25:57;4.00;;;2.97;;
14139;SDS011;7150;53.514;9.988;2023-06-22T05:28:23;4.03;;;2.87;;
14139;SDS011;7150;53.514;9.988;2023-06-22T05:30:49;4.13;;;2.97;;
14139;SDS011;7150;53.514;9.988;2023-06-22T05:33:15;4.77;;;3.20;;
14139;SDS011;7150;53.514;9.988;2023-06-22T05:35:40;2.70;;;2.50;;
14139;SDS011;7150;53.514;9.988;2023-06-22T05:38:06;3.97;;;3.10;;
14139;SDS011;7150;53.514;9.988;2023-06-22T05:40:32;3.43;;;2.83;;
14139;SDS011;7150;53.514;9.988;2023-06-22T05:42:57;4.17;;;2.80;;
14139;SDS011;7150;53.514;9.988;2023-06-22T05:45:25;3.20;;;2.80;;
14139;SDS011;7150;53.514;9.988;2023-06-22T05:47:51;3.43;;;2.47;;
14139;SDS011;7150;53.514;9.988;2023-06-22T05:50:16;3.27;;;2.70;;
14139;SDS011;7150;53.514;9.988;2023-06-22T05:52:42;3.43;;;2.83;;
14139;SDS011;7150;53.514;9.988;2023-06-22T05:55:07;3.93;;;3.40;;
14139;SDS011;7150;53.514;9.988;2023-06-22T05:57:33;4.43;;;3.03;;
14139;SDS011;7150;53.514;9.988;2023-06-22T05:59:59;3.43;;;2.60;;
14139;SDS011;7150;53.514;9.988;2023-06-22T06:02:24;4.20;;;3.33;;
14139;SDS011;7150;53.514;9.988;2023-06-22T06:04:50;4.20;;;2.80;;
14139;SDS011;7150;53.514;9.988;2023-06-22T06:07:17;3.10;;;2.10;;
14139;SDS011;7150;53.514;9.988;2023-06-22T06:09:43;3.57;;;2.27;;
14139;SDS011;7150;53.514;9.988;2023-06-22T06:12:08;3.37;;;2.73;;
14139;SDS011;7150;53.514;9.988;2023-06-22T06:14:34;2.83;;;2.30;;
14139;SDS011;7150;53.514;9.988;2023-06-22T06:17:00;4.47;;;2.63;;
14139;SDS011;7150;53.514;9.988;2023-06-22T06:19:25;3.80;;;2.53;;
14139;SDS011;7150;53.514;9.988;2023-06-22T06:21:50;2.70;;;2.10;;
14139;SDS011;7150;53.514;9.988;2023-06-22T06:24:16;3.47;;;2.37;;
14139;SDS011;7150;53.514;9.988;2023-06-22T06:26:41;3.63;;;2.40;;
14139;SDS011;7150;53.514;9.988;2023-06-22T06:29:07;4.30;;;2.70;;
14139;SDS011;7150;53.514;9.988;2023-06-22T06:31:32;4.23;;;2.47;;
14139;SDS011;7150;53.514;9.988;2023-06-22T06:33:58;3.90;;;2.60;;
14139;SDS011;7150;53.514;9.988;2023-06-22T06:36:23;2.90;;;2.20;;
14139;SDS011;7150;53.514;9.988;2023-06-22T06:38:49;3.70;;;2.40;;
14139;SDS011;7150;53.514;9.988;2023-06-22T06:41:15;3.90;;;2.37;;
14139;SDS011;7150;53.514;9.988;2023-06-22T06:43:41;3.33;;;2.57;;
14139;SDS011;7150;53.514;9.988;2023-06-22T06:46:09;4.57;;;2.60;;
14139;SDS011;7150;53.514;9.988;2023-06-22T06:48:35;4.10;;;2.33;;
14139;SDS011;7150;53.514;9.988;2023-06-22T06:51:01;5.17;;;2.40;;
14139;SDS011;7150;53.514;9.988;2023-06-22T06:53:26;4.20;;;2.50;;
14139;SDS011;7150;53.514;9.988;2023-06-22T06:55:53;3.53;;;2.47;;
14139;SDS011;7150;53.514;9.988;2023-06-22T06:58:19;2.97;;;2.50;;
14139;SDS011;7150;53.514;9.988;2023-06-22T07:00:44;3.93;;;2.60;;
14139;SDS011;7150;53.514;9.988;2023-06-22T07:03:10;3.67;;;2.30;;
14139;SDS011;7150;53.514;9.988;2023-06-22T07:05:35;4.93;;;2.47;;
14139;SDS011;7150;53.514;9.988;2023-06-22T07:08:01;4.73;;;2.40;;
14139;SDS011;7150;53.514;9.988;2023-06-22T07:10:27;4.33;;;2.57;;
14139;SDS011;7150;53.514;9.988;2023-06-22T07:12:53;3.97;;;2.53;;
14139;SDS011;7150;53.514;9.988;2023-06-22T07:15:19;4.67;;;2.80;;
14139;SDS011;7150;53.514;9.988;2023-06-22T07:17:44;3.67;;;2.70;;
14139;SDS011;7150;53.514;9.988;2023-06-22T07:20:10;4.83;;;2.77;;
14139;SDS011;7150;53.514;9.988;2023-06-22T07:22:43;3.50;;;2.30;;
14139;SDS011;7150;53.514;9.988;2023-06-22T07:25:09;3.97;;;2.57;;
14139;SDS011;7150;53.514;9.988;2023-06-22T07:27:39;5.30;;;2.27;;
14139;SDS011;7150;53.514;9.988;2023-06-22T07:30:09;3.00;;;2.30;;
14139;SDS011;7150;53.514;9.988;2023-06-22T07:32:35;3.33;;;2.20;;
14139;SDS011;7150;53.514;9.988;2023-06-22T07:35:01;2.47;;;2.00;;
14139;SDS011;7150;53.514;9.988;2023-06-22T07:37:27;3.20;;;2.30;;
14139;SDS011;7150;53.514;9.988;2023-06-22T07:39:53;2.77;;;2.30;;
14139;SDS011;7150;53.514;9.988;2023-06-22T07:42:23;2.67;;;2.20;;
14139;SDS011;7150;53.514;9.988;2023-06-22T07:44:49;2.93;;;2.20;;
14139;SDS011;7150;53.514;9.988;2023-06-22T07:47:16;2.40;;;2.20;;
14139;SDS011;7150;53.514;9.988;2023-06-22T07:49:43;3.97;;;2.13;;
14139;SDS011;7150;53.514;9.988;2023-06-22T07:52:08;2.97;;;2.40;;
14139;SDS011;7150;53.514;9.988;2023-06-22T07:54:34;4.10;;;2.30;;
14139;SDS011;7150;53.514;9.988;2023-06-22T07:56:59;2.53;;;1.93;;
14139;SDS011;7150;53.514;9.988;2023-06-22T07:59:25;2.73;;;2.10;;
14139;SDS011;7150;53.514;9.988;2023-06-22T08:01:50;2.43;;;1.97;;
14139;SDS011;7150;53.514;9.988;2023-06-22T08:04:16;3.13;;;2.10;;
14139;SDS011;7150;53.514;9.988;2023-06-22T08:06:41;2.23;;;2.03;;
14139;SDS011;7150;53.514;9.988;2023-06-22T08:09:08;2.40;;;1.93;;
14139;SDS011;7150;53.514;9.988;2023-06-22T08:11:34;3.73;;;1.90;;
14139;SDS011;7150;53.514;9.988;2023-06-22T08:13:59;2.30;;;1.90;;
14139;SDS011;7150;53.514;9.988;2023-06-22T08:16:25;2.40;;;2.00;;
14139;SDS011;7150;53.514;9.988;2023-06-22T08:18:50;2.30;;;1.80;;
14139;SDS011;7150;53.514;9.988;2023-06-22T08:21:16;2.40;;;1.70;;
14139;SDS011;7150;53.514;9.988;2023-06-22T08:23:41;2.00;;;1.67;;
14139;SDS011;7150;53.514;9.988;2023-06-22T08:26:07;2.10;;;1.73;;
14139;SDS011;7150;53.514;9.988;2023-06-22T08:28:32;2.77;;;2.10;;
14139;SDS011;7150;53.514;9.988;2023-06-22T08:30:59;2.80;;;2.03;;
14139;SDS011;7150;53.514;9.988;2023-06-22T08:33:25;3.03;;;1.80;;
14139;SDS011;7150;53.514;9.988;2023-06-22T08:35:53;2.67;;;1.90;;
14139;SDS011;7150;53.514;9.988;2023-06-22T08:38:20;2.67;;;1.93;;
14139;SDS011;7150;53.514;9.988;2023-06-22T08:40:45;3.00;;;2.17;;
14139;SDS011;7150;53.514;9.988;2023-06-22T08:43:11;3.13;;;1.90;;
14139;SDS011;7150;53.514;9.988;2023-06-22T08:45:36;2.73;;;1.60;;
14139;SDS011;7150;53.514;9.988;2023-06-22T08:48:02;2.67;;;1.70;;
14139;SDS011;7150;53.514;9.988;2023-06-22T08:50:27;2.43;;;1.70;;
14139;SDS011;7150;53.514;9.988;2023-06-22T08:52:53;2.43;;;1.60;;
14139;SDS011;7150;53.514;9.988;2023-06-22T08:55:18;1.80;;;1.57;;
14139;SDS011;7150;53.514;9.988;2023-06-22T08:57:44;3.20;;;1.60;;
14139;SDS011;7150;53.514;9.988;2023-06-22T09:00:09;1.87;;;1.63;;
14139;SDS011;7150;53.514;9.988;2023-06-22T09:02:42;2.47;;;1.77;;
14139;SDS011;7150;53.514;9.988;2023-06-22T09:05:09;1.57;;;1.30;;
14139;SDS011;7150;53.514;9.988;2023-06-22T09:07:34;1.93;;;1.73;;
14139;SDS011;7150;53.514;9.988;2023-06-22T09:10:00;2.40;;;1.90;;
14139;SDS011;7150;53.514;9.988;2023-06-22T09:12:25;2.27;;;1.77;;
14139;SDS011;7150;53.514;9.988;2023-06-22T09:14:52;2.37;;;1.77;;
14139;SDS011;7150;53.514;9.988;2023-06-22T09:17:18;2.43;;;1.80;;
14139;SDS011;7150;53.514;9.988;2023-06-22T09:19:43;3.90;;;2.20;;
14139;SDS011;7150;53.514;9.988;2023-06-22T09:22:09;3.10;;;1.73;;
14139;SDS011;7150;53.514;9.988;2023-06-22T09:24:34;3.00;;;1.67;;
14139;SDS011;7150;53.514;9.988;2023-06-22T09:27:00;2.87;;;2.27;;
14139;SDS011;7150;53.514;9.988;2023-06-22T09:29:26;3.80;;;1.80;;
14139;SDS011;7150;53.514;9.988;2023-06-22T09:31:51;2.70;;;2.00;;
14139;SDS011;7150;53.514;9.988;2023-06-22T09:34:18;3.73;;;2.23;;
14139;SDS011;7150;53.514;9.988;2023-06-22T09:36:45;2.97;;;2.40;;
14139;SDS011;7150;53.514;9.988;2023-06-22T09:39:11;4.03;;;2.30;;
14139;SDS011;7150;53.514;9.988;2023-06-22T09:41:37;2.63;;;2.10;;
14139;SDS011;7150;53.514;9.988;2023-06-22T09:44:02;3.17;;;2.30;;
14139;SDS011;7150;53.514;9.988;2023-06-22T09:46:27;2.83;;;2.20;;
14139;SDS011;7150;53.514;9.988;2023-06-22T09:48:53;2.93;;;2.00;;
14139;SDS011;7150;53.514;9.988;2023-06-22T09:51:19;2.70;;;2.10;;
14139;SDS011;7150;53.514;9.988;2023-06-22T09:53:46;2.57;;;2.20;;
14139;SDS011;7150;53.514;9.988;2023-06-22T09:56:12;3.73;;;2.10;;
14139;SDS011;7150;53.514;9.988;2023-06-22T09:58:40;2.37;;;1.87;;
14139;SDS011;7150;53.514;9.988;2023-06-22T10:01:07;2.93;;;2.23;;
14139;SDS011;7150;53.514;9.988;2023-06-22T10:03:33;4.37;;;2.00;;
14139;SDS011;7150;53.514;9.988;2023-06-22T10:05:58;2.23;;;2.03;;
14139;SDS011;7150;53.514;9.988;2023-06-22T10:08:24;2.27;;;2.07;;
14139;SDS011;7150;53.514;9.988;2023-06-22T10:10:52;2.27;;;2.07;;
14139;SDS011;7150;53.514;9.988;2023-06-22T10:13:17;2.27;;;1.87;;
14139;SDS011;7150;53.514;9.988;2023-06-22T10:15:44;2.50;;;2.20;;
14139;SDS011;7150;53.514;9.988;2023-06-22T10:18:14;2.30;;;2.07;;
14139;SDS011;7150;53.514;9.988;2023-06-22T10:20:41;2.80;;;1.90;;
14139;SDS011;7150;53.514;9.988;2023-06-22T10:23:06;2.63;;;2.07;;
14139;SDS011;7150;53.514;9.988;2023-06-22T10:25:32;2.77;;;2.33;;
14139;SDS011;7150;53.514;9.988;2023-06-22T10:27:57;2.90;;;2.10;;
14139;SDS011;7150;53.514;9.988;2023-06-22T10:30:23;3.67;;;1.97;;
14139;SDS011;7150;53.514;9.988;2023-06-22T10:32:48;3.37;;;2.20;;
14139;SDS011;7150;53.514;9.988;2023-06-22T10:35:14;2.10;;;1.80;;
14139;SDS011;7150;53.514;9.988;2023-06-22T10:37:41;2.83;;;2.53;;
14139;SDS011;7150;53.514;9.988;2023-06-22T10:40:08;2.77;;;2.07;;
14139;SDS011;7150;53.514;9.988;2023-06-22T10:42:34;3.00;;;2.40;;
14139;SDS011;7150;53.514;9.988;2023-06-22T10:44:59;3.80;;;2.37;;
14139;SDS011;7150;53.514;9.988;2023-06-22T10:47:25;4.33;;;2.47;;
14139;SDS011;7150;53.514;9.988;2023-06-22T10:49:50;2.80;;;2.50;;
14139;SDS011;7150;53.514;9.988;2023-06-22T10:52:16;2.80;;;2.07;;
14139;SDS011;7150;53.514;9.988;2023-06-22T10:54:41;4.07;;;2.70;;
14139;SDS011;7150;53.514;9.988;2023-06-22T10:57:07;3.47;;;2.80;;
14139;SDS011;7150;53.514;9.988;2023-06-22T10:59:33;3.57;;;2.43;;
14139;SDS011;7150;53.514;9.988;2023-06-22T11:01:58;2.57;;;2.33;;
14139;SDS011;7150;53.514;9.988;2023-06-22T11:04:24;2.33;;;2.10;;
14139;SDS011;7150;53.514;9.988;2023-06-22T11:06:50;4.73;;;2.60;;
14139;SDS011;7150;53.514;9.988;2023-06-22T11:09:16;4.73;;;3.00;;
14139;SDS011;7150;53.514;9.988;2023-06-22T11:11:45;3.50;;;2.50;;
14139;SDS011;7150;53.514;9.988;2023-06-22T11:14:11;2.80;;;2.50;;
14139;SDS011;7150;53.514;9.988;2023-06-22T11:16:36;3.10;;;2.80;;
14139;SDS011;7150;53.514;9.988;2023-06-22T11:19:04;2.67;;;2.47;;
14139;SDS011;7150;53.514;9.988;2023-06-22T11:21:31;3.60;;;2.77;;
14139;SDS011;7150;53.514;9.988;2023-06-22T11:23:57;3.57;;;2.83;;
14139;SDS011;7150;53.514;9.988;2023-06-22T11:26:23;2.80;;;2.53;;
14139;SDS011;7150;53.514;9.988;2023-06-22T11:28:49;5.20;;;3.00;;
14139;SDS011;7150;53.514;9.988;2023-06-22T11:31:14;3.60;;;3.10;;
14139;SDS011;7150;53.514;9.988;2023-06-22T11:33:40;3.30;;;2.80;;
14139;SDS011;7150;53.514;9.988;2023-06-22T11:36:05;3.37;;;2.90;;
14139;SDS011;7150;53.514;9.988;2023-06-22T11:38:31;3.30;;;2.97;;
14139;SDS011;7150;53.514;9.988;2023-06-22T11:41:00;4.00;;;3.07;;
14139;SDS011;7150;53.514;9.988;2023-06-22T11:43:25;3.53;;;2.93;;
14139;SDS011;7150;53.514;9.988;2023-06-22T11:45:51;3.47;;;2.50;;
14139;SDS011;7150;53.514;9.988;2023-06-22T11:48:16;3.20;;;2.90;;
14139;SDS011;7150;53.514;9.988;2023-06-22T11:50:42;4.30;;;3.50;;
14139;SDS011;7150;53.514;9.988;2023-06-22T11:53:07;3.50;;;3.00;;
14139;SDS011;7150;53.514;9.988;2023-06-22T11:55:33;3.97;;;3.40;;
14139;SDS011;7150;53.514;9.988;2023-06-22T11:57:58;3.50;;;3.10;;
14139;SDS011;7150;53.514;9.988;2023-06-22T12:00:26;4.67;;;3.00;;
14139;SDS011;7150;53.514;9.988;2023-06-22T12:02:51;4.07;;;3.00;;
14139;SDS011;7150;53.514;9.988;2023-06-22T12:05:20;3.57;;;2.90;;
14139;SDS011;7150;53.514;9.988;2023-06-22T12:07:47;3.80;;;2.93;;
14139;SDS011;7150;53.514;9.988;2023-06-22T12:10:13;3.60;;;2.97;;
14139;SDS011;7150;53.514;9.988;2023-06-22T12:12:38;3.17;;;2.77;;
14139;SDS011;7150;53.514;9.988;2023-06-22T12:15:04;3.27;;;2.90;;
14139;SDS011;7150;53.514;9.988;2023-06-22T12:17:30;4.77;;;3.10;;
14139;SDS011;7150;53.514;9.988;2023-06-22T12:19:56;3.40;;;3.10;;
14139;SDS011;7150;53.514;9.988;2023-06-22T12:22:21;4.60;;;3.07;;
14139;SDS011;7150;53.514;9.988;2023-06-22T12:24:47;3.77;;;3.00;;
14139;SDS011;7150;53.514;9.988;2023-06-22T12:27:12;3.27;;;2.97;;
14139;SDS011;7150;53.514;9.988;2023-06-22T12:29:41;4.47;;;3.40;;
14139;SDS011;7150;53.514;9.988;2023-06-22T12:32:06;4.00;;;3.47;;
14139;SDS011;7150;53.514;9.988;2023-06-22T12:34:32;4.10;;;3.27;;
14139;SDS011;7150;53.514;9.988;2023-06-22T12:36:58;4.70;;;3.30;;
14139;SDS011;7150;53.514;9.988;2023-06-22T12:39:23;4.53;;;3.43;;
14139;SDS011;7150;53.514;9.988;2023-06-22T12:41:49;4.23;;;3.23;;
14139;SDS011;7150;53.514;9.988;2023-06-22T12:44:14;5.23;;;3.63;;
14139;SDS011;7150;53.514;9.988;2023-06-22T12:46:40;5.33;;;4.40;;
14139;SDS011;7150;53.514;9.988;2023-06-22T12:49:05;5.00;;;4.00;;
14139;SDS011;7150;53.514;9.988;2023-06-22T12:51:31;5.23;;;4.57;;
14139;SDS011;7150;53.514;9.988;2023-06-22T12:53:56;4.33;;;3.93;;
14139;SDS011;7150;53.514;9.988;2023-06-22T12:56:22;4.47;;;3.90;;
14139;SDS011;7150;53.514;9.988;2023-06-22T12:58:47;5.30;;;3.80;;
14139;SDS011;7150;53.514;9.988;2023-06-22T13:01:13;3.57;;;3.23;;
14139;SDS011;7150;53.514;9.988;2023-06-22T13:03:39;3.80;;;3.40;;
14139;SDS011;7150;53.514;9.988;2023-06-22T13:06:05;5.53;;;3.97;;
14139;SDS011;7150;53.514;9.988;2023-06-22T13:08:30;3.60;;;3.30;;
14139;SDS011;7150;53.514;9.988;2023-06-22T13:10:56;4.00;;;3.30;;
14139;SDS011;7150;53.514;9.988;2023-06-22T13:13:25;3.03;;;2.73;;
14139;SDS011;7150;53.514;9.988;2023-06-22T13:15:52;3.33;;;3.03;;
14139;SDS011;7150;53.514;9.988;2023-06-22T13:18:18;3.93;;;3.53;;
14139;SDS011;7150;53.514;9.988;2023-06-22T13:20:44;3.47;;;3.17;;
14139;SDS011;7150;53.514;9.988;2023-06-22T13:23:10;5.10;;;3.10;;
14139;SDS011;7150;53.514;9.988;2023-06-22T13:25:36;4.13;;;3.50;;
14139;SDS011;7150;53.514;9.988;2023-06-22T13:28:01;3.10;;;2.80;;
14139;SDS011;7150;53.514;9.988;2023-06-22T13:30:27;7.07;;;3.97;;
14139;SDS011;7150;53.514;9.988;2023-06-22T13:32:52;3.70;;;3.30;;
14139;SDS011;7150;53.514;9.988;2023-06-22T13:35:18;4.73;;;3.33;;
14139;SDS011;7150;53.514;9.988;2023-06-22T13:37:43;5.60;;;3.70;;
14139;SDS011;7150;53.514;9.988;2023-06-22T13:40:09;3.90;;;3.23;;
14139;SDS011;7150;53.514;9.988;2023-06-22T13:42:35;3.50;;;3.20;;
14139;SDS011;7150;53.514;9.988;2023-06-22T13:45:00;4.17;;;3.77;;
14139;SDS011;7150;53.514;9.988;2023-06-22T13:47:26;4.13;;;3.53;;
14139;SDS011;7150;53.514;9.988;2023-06-22T13:49:52;3.83;;;3.20;;
14139;SDS011;7150;53.514;9.988;2023-06-22T13:52:17;4.87;;;3.80;;
14139;SDS011;7150;53.514;9.988;2023-06-22T13:54:43;3.93;;;3.53;;
14139;SDS011;7150;53.514;9.988;2023-06-22T13:57:08;3.77;;;3.40;;
14139;SDS011;7150;53.514;9.988;2023-06-22T13:59:34;3.83;;;3.43;;
14139;SDS011;7150;53.514;9.988;2023-06-22T14:02:00;5.17;;;3.30;;
14139;SDS011;7150;53.514;9.988;2023-06-22T14:04:25;3.53;;;3.20;;
14139;SDS011;7150;53.514;9.988;2023-06-22T14:06:51;3.80;;;3.17;;
14139;SDS011;7150;53.514;9.988;2023-06-22T14:09:16;3.80;;;2.77;;
14139;SDS011;7150;53.514;9.988;2023-06-22T14:11:42;3.50;;;3.10;;
14139;SDS011;7150;53.514;9.988;2023-06-22T14:14:07;4.23;;;3.30;;
14139;SDS011;7150;53.514;9.988;2023-06-22T14:16:33;3.87;;;3.10;;
14139;SDS011;7150;53.514;9.988;2023-06-22T14:18:58;3.57;;;3.27;;
14139;SDS011;7150;53.514;9.988;2023-06-22T14:21:25;4.37;;;3.77;;
14139;SDS011;7150;53.514;9.988;2023-06-22T14:23:51;3.57;;;3.20;;
14139;SDS011;7150;53.514;9.988;2023-06-22T14:26:16;4.87;;;2.97;;
14139;SDS011;7150;53.514;9.988;2023-06-22T14:28:45;4.47;;;3.20;;
14139;SDS011;7150;53.514;9.988;2023-06-22T14:31:17;3.90;;;3.50;;
14139;SDS011;7150;53.514;9.988;2023-06-22T14:33:46;3.30;;;3.00;;
14139;SDS011;7150;53.514;9.988;2023-06-22T14:36:14;3.23;;;2.70;;
14139;SDS011;7150;53.514;9.988;2023-06-22T14:38:40;3.23;;;2.93;;
14139;SDS011;7150;53.514;9.988;2023-06-22T14:41:05;3.90;;;3.23;;
14139;SDS011;7150;53.514;9.988;2023-06-22T14:43:31;3.37;;;2.73;;
14139;SDS011;7150;53.514;9.988;2023-06-22T14:45:56;3.60;;;3.00;;
14139;SDS011;7150;53.514;9.988;2023-06-22T14:48:22;3.40;;;2.87;;
14139;SDS011;7150;53.514;9.988;2023-06-22T14:50:47;3.30;;;3.00;;
14139;SDS011;7150;53.514;9.988;2023-06-22T14:53:13;3.53;;;3.10;;
14139;SDS011;7150;53.514;9.988;2023-06-22T14:55:39;3.30;;;2.90;;
14139;SDS011;7150;53.514;9.988;2023-06-22T14:58:05;3.03;;;2.73;;
14139;SDS011;7150;53.514;9.988;2023-06-22T15:00:30;3.90;;;3.00;;
14139;SDS011;7150;53.514;9.988;2023-06-22T15:02:56;3.80;;;3.33;;